Sankuniki — JD2465 — position and weather

sailwx.info

Track history (hours):
 
Tides and Currents Weather Stations Pressure Air Temp Water Temp Dewpoint Dewpoint Depression Visibility Wind Speed Wind Dir Waves Ship Positions

Sankuniki

Last reported at 2017-Nov-17 05:22 UTC. Time now 2017-Nov-21 12:02 UTC.
Position N 34°60' E 139°32'.

Length 71 m; draft 5 m.

Type: Cargo ship. MMSI: 431000269.

Date/timePositionNaut miles runAvg speedWind from/ knotsBaromVisibWave heightAir tempDewpointWater temp
2017-Nov-17 05:22N 34°60' E 139°32'512.8
2017-Nov-17 05:00N 35°03' E 139°37'613.1
2017-Nov-17 04:30N 35°07' E 139°43'713.0
2017-Nov-17 04:00N 35°13' E 139°46'611.5
2017-Nov-17 03:30N 35°18' E 139°44'611.5
2017-Nov-17 03:00N 35°24' E 139°43'612.2
2017-Nov-17 02:30N 35°28' E 139°48'0 0.9
2017-Nov-17 02:00N 35°29' E 139°48'0 0.0
2017-Nov-17 01:30N 35°29' E 139°48'4 7.7
2017-Nov-17 01:00N 35°25' E 139°47'611.3
2017-Nov-17 00:30N 35°20' E 139°44'610.6
2017-Nov-16 23:59N 35°14' E 139°47'511.6
2017-Nov-16 23:30N 35°09' E 139°46'612.4
2017-Nov-16 23:00N 35°03' E 139°44'  
Track history (hours):
 
Tides and Currents Weather Stations Pressure Air Temp Water Temp Dewpoint Dewpoint Depression Visibility Wind Speed Wind Dir Waves Ship Positions

Sankuniki

Last reported at 2017-Nov-17 05:22 UTC. Time now 2017-Nov-21 12:02 UTC.
Position N 34°60' E 139°32'.

Length 71 m; draft 5 m.

Type: Cargo ship. MMSI: 431000269.

Date/timePositionNaut miles runAvg speedWind from/ knotsBaromVisibWave heightAir tempDewpointWater temp
2017-Nov-17 05:22N 34°60' E 139°32'512.8
2017-Nov-17 05:00N 35°03' E 139°37'613.1
2017-Nov-17 04:30N 35°07' E 139°43'713.0
2017-Nov-17 04:00N 35°13' E 139°46'611.5
2017-Nov-17 03:30N 35°18' E 139°44'611.5
2017-Nov-17 03:00N 35°24' E 139°43'612.2
2017-Nov-17 02:30N 35°28' E 139°48'0 0.9
2017-Nov-17 02:00N 35°29' E 139°48'0 0.0
2017-Nov-17 01:30N 35°29' E 139°48'4 7.7
2017-Nov-17 01:00N 35°25' E 139°47'611.3
2017-Nov-17 00:30N 35°20' E 139°44'610.6
2017-Nov-16 23:59N 35°14' E 139°47'511.6
2017-Nov-16 23:30N 35°09' E 139°46'612.4
2017-Nov-16 23:00N 35°03' E 139°44'  

Dump ship's entire track history